createdAt,value
2022-08-05T12:13:47.970Z,32.07
2022-08-05T12:14:18.306Z,31.66
2022-08-05T12:15:17.313Z,31.37
2022-08-05T12:16:17.301Z,31.18
2022-08-05T12:18:04.405Z,31.06
2022-08-05T12:18:18.347Z,30.95
2022-08-05T12:20:26.720Z,30.80
2022-08-05T12:20:27.201Z,30.86
2022-08-05T12:21:18.309Z,30.74
2022-08-05T12:22:20.029Z,30.70
2022-08-05T12:23:17.276Z,30.67
2022-08-05T12:24:17.608Z,30.64
2022-08-05T12:25:17.328Z,30.61
2022-08-05T12:26:17.218Z,30.56
2022-08-05T12:27:21.569Z,30.50
2022-08-05T12:28:18.162Z,30.44
2022-08-05T12:29:18.005Z,30.40
2022-08-05T12:30:18.316Z,30.36
2022-08-05T12:31:23.713Z,30.33
2022-08-05T12:32:18.136Z,30.29
2022-08-05T12:33:26.987Z,30.25
2022-08-05T12:34:21.429Z,30.22
2022-08-05T12:35:21.748Z,30.19
2022-08-05T12:36:17.372Z,30.16
2022-08-05T12:37:29.944Z,30.14
2022-08-05T12:38:18.124Z,30.11
2022-08-05T12:39:17.105Z,30.08
2022-08-05T12:40:20.742Z,30.05
2022-08-05T12:41:18.314Z,30.02
2022-08-05T12:42:17.025Z,29.99
2022-08-05T12:43:21.107Z,29.96
2022-08-05T12:44:33.090Z,29.93
2022-08-05T12:45:17.976Z,29.90
2022-08-05T12:46:16.970Z,29.87
2022-08-05T12:47:25.547Z,29.85
2022-08-05T12:48:32.230Z,29.83
2022-08-05T12:49:19.129Z,29.82
2022-08-05T12:50:16.972Z,29.80
2022-08-05T12:51:21.742Z,29.77
2022-08-05T12:52:23.793Z,29.75
2022-08-05T12:53:17.917Z,29.72
2022-08-05T12:54:23.495Z,29.69
2022-08-05T12:55:17.925Z,29.65
2022-08-05T12:56:34.566Z,29.61
2022-08-05T12:57:17.875Z,29.57
2022-08-05T12:58:49.459Z,29.54
2022-08-05T12:59:21.009Z,29.52
2022-08-05T13:02:01.083Z,29.50
2022-08-05T13:02:04.441Z,29.48
2022-08-05T13:02:17.898Z,29.46
2022-08-05T13:03:17.030Z,29.44
2022-08-05T13:04:20.984Z,29.41
2022-08-05T13:05:16.813Z,29.38
2022-08-05T13:06:17.087Z,29.35
2022-08-05T13:07:17.343Z,29.32
2022-08-05T13:08:17.934Z,29.30
2022-08-05T13:09:27.906Z,29.28
2022-08-05T13:10:19.387Z,29.26
2022-08-05T13:11:16.852Z,29.24
2022-08-05T13:12:17.719Z,29.23
2022-08-05T13:14:06.054Z,29.23
2022-08-05T13:14:19.498Z,29.22
2022-08-05T13:15:24.032Z,29.23
2022-08-05T13:16:17.931Z,29.26
2022-08-05T13:17:16.754Z,29.29
2022-08-05T13:18:19.845Z,29.32
2022-08-05T13:19:16.657Z,29.35
2022-08-05T13:20:21.711Z,29.37
2022-08-05T13:21:17.676Z,29.39
2022-08-05T13:22:27.960Z,29.41
2022-08-05T13:23:18.266Z,29.43
2022-08-05T13:24:36.383Z,29.46
2022-08-05T13:25:18.675Z,29.48
2022-08-05T13:26:16.586Z,29.50
2022-08-05T13:27:17.139Z,29.51
2022-08-05T13:28:18.526Z,29.51
2022-08-05T13:29:19.045Z,29.51
2022-08-05T13:30:34.510Z,29.50
2022-08-05T13:31:17.600Z,29.48
2022-08-05T13:32:29.182Z,29.46
2022-08-05T13:34:21.274Z,29.43
2022-08-05T13:34:23.515Z,29.40
2022-08-05T13:35:22.275Z,29.37
2022-08-05T13:36:17.479Z,29.34
2022-08-05T13:37:34.248Z,29.33
2022-08-05T13:38:20.441Z,29.31
2022-08-05T13:40:14.514Z,29.31
2022-08-05T13:40:36.889Z,29.30
2022-08-05T13:41:17.478Z,29.30
2022-08-05T13:42:16.387Z,29.31
2022-08-05T13:43:21.946Z,29.32
2022-08-05T13:44:18.200Z,29.33
2022-08-05T13:45:20.791Z,29.34
2022-08-05T13:46:30.852Z,29.34
2022-08-05T13:47:34.670Z,29.35
2022-08-05T13:48:57.849Z,29.35
2022-08-05T13:49:17.614Z,29.34
2022-08-05T13:50:16.897Z,29.34
2022-08-05T13:51:16.364Z,29.32
2022-08-05T13:52:16.329Z,29.28
2022-08-05T13:53:16.369Z,29.25
2022-08-05T13:54:16.511Z,29.23
2022-08-05T13:55:41.561Z,29.20
2022-08-05T13:56:18.466Z,29.19
2022-08-05T13:57:16.335Z,29.18
2022-08-05T13:58:30.229Z,29.18
2022-08-05T13:59:20.421Z,29.19
2022-08-05T14:00:16.233Z,29.19
2022-08-05T14:01:16.244Z,29.20
2022-08-05T14:02:19.727Z,29.20
2022-08-05T14:03:16.304Z,29.21
2022-08-05T14:04:16.178Z,29.21
2022-08-05T14:05:19.353Z,29.22
2022-08-05T14:06:26.314Z,29.23
2022-08-05T14:07:26.304Z,29.23
2022-08-05T14:08:20.590Z,29.23
2022-08-05T14:09:17.143Z,29.23
2022-08-05T14:10:19.218Z,29.23
2022-08-05T14:11:21.038Z,29.24
2022-08-05T14:12:32.112Z,29.25
2022-08-05T14:13:17.086Z,29.25
2022-08-05T14:14:16.149Z,29.26
2022-08-05T14:16:07.706Z,29.25
2022-08-05T14:16:17.452Z,29.23
2022-08-05T14:17:16.979Z,29.21
2022-08-05T14:18:18.086Z,29.20
2022-08-05T14:19:16.066Z,29.19
2022-08-05T14:20:18.318Z,29.18
2022-08-05T14:22:07.257Z,29.17
2022-08-05T14:22:17.013Z,29.16
2022-08-05T14:23:24.986Z,29.14
2022-08-05T14:24:19.424Z,29.13
2022-08-05T14:25:19.096Z,29.12
2022-08-05T14:26:36.207Z,29.12
2022-08-05T14:27:18.098Z,29.13
2022-08-05T14:28:26.147Z,29.15
2022-08-05T14:29:17.078Z,29.17
2022-08-05T14:30:20.471Z,29.19
2022-08-05T14:31:17.522Z,29.21
2022-08-05T14:32:27.109Z,29.22
2022-08-05T14:33:22.732Z,29.22
2022-08-05T14:34:16.850Z,29.23
2022-08-05T14:35:16.079Z,29.23
2022-08-05T14:36:15.902Z,29.24
2022-08-05T14:37:16.852Z,29.24
2022-08-05T14:38:32.191Z,29.23
2022-08-05T14:39:23.275Z,29.22
2022-08-05T14:40:17.213Z,29.20
2022-08-05T14:41:17.673Z,29.17
2022-08-05T14:42:21.435Z,29.15
2022-08-05T14:43:16.819Z,29.14
2022-08-05T14:44:20.603Z,29.12
2022-08-05T14:45:16.774Z,29.10
2022-08-05T14:46:16.022Z,29.08
2022-08-05T14:47:15.733Z,29.05
2022-08-05T14:48:33.438Z,29.02
2022-08-05T14:49:16.785Z,29.00
2022-08-05T14:50:19.168Z,28.99
2022-08-05T14:51:16.125Z,28.98
2022-08-05T14:52:30.584Z,28.97
2022-08-05T14:53:16.693Z,28.96
2022-08-05T14:54:27.501Z,28.94
2022-08-05T14:55:16.667Z,28.93
2022-08-05T14:56:15.638Z,28.91
2022-08-05T14:57:16.833Z,28.90
2022-08-05T14:58:15.638Z,28.89
2022-08-05T14:59:15.617Z,28.87
2022-08-05T15:00:15.602Z,28.85
2022-08-05T15:01:18.199Z,28.83
2022-08-05T15:02:16.938Z,28.80
2022-08-05T15:03:15.602Z,28.79
2022-08-05T15:04:15.564Z,28.77
2022-08-05T15:05:15.553Z,28.76
2022-08-05T15:06:15.960Z,28.75
2022-08-05T15:08:08.834Z,28.73
2022-08-05T15:08:57.749Z,28.72
2022-08-05T15:09:16.587Z,28.71
2022-08-05T15:10:16.548Z,28.71
2022-08-05T15:11:15.487Z,28.71
2022-08-05T15:12:16.627Z,28.71
2022-08-05T15:13:15.500Z,28.71
2022-08-05T15:14:34.289Z,28.71
2022-08-05T15:15:16.463Z,28.70
2022-08-05T15:16:15.417Z,28.70
2022-08-05T15:17:46.748Z,28.68
2022-08-05T15:18:17.267Z,28.67
2022-08-05T15:19:23.871Z,28.66
2022-08-05T15:20:18.777Z,28.65
2022-08-05T15:21:15.435Z,28.64
2022-08-05T15:22:16.354Z,28.64
2022-08-05T15:23:15.381Z,28.64
2022-08-05T15:24:15.433Z,28.63
2022-08-05T15:25:15.595Z,28.62
2022-08-05T15:26:16.382Z,28.61
2022-08-05T15:27:16.371Z,28.60
2022-08-05T15:28:15.768Z,28.59
2022-08-05T15:29:15.335Z,28.58
2022-08-05T15:30:16.500Z,28.57
2022-08-05T15:31:15.459Z,28.55
2022-08-05T15:32:15.280Z,28.52
2022-08-05T15:34:04.642Z,28.49
2022-08-05T15:34:31.187Z,28.44
2022-08-05T15:35:16.281Z,28.38
2022-08-05T15:36:17.458Z,28.31
2022-08-05T15:37:19.345Z,28.21
2022-08-05T15:38:35.420Z,28.08
2022-08-05T15:41:01.708Z,27.85
2022-08-05T15:41:01.709Z,27.95
2022-08-05T15:41:20.459Z,27.75
2022-08-05T15:42:53.909Z,27.65
2022-08-05T15:43:20.273Z,27.55
2022-08-05T15:44:16.325Z,27.45
2022-08-05T15:45:15.173Z,27.35
2022-08-05T15:46:15.434Z,27.24
2022-08-05T15:47:15.097Z,27.14
2022-08-05T15:48:15.415Z,27.03
2022-08-05T15:49:23.203Z,26.93
2022-08-05T15:50:16.135Z,26.87
2022-08-05T15:51:15.065Z,26.82
2022-08-05T15:52:29.003Z,26.78
2022-08-05T15:53:16.033Z,26.72
2022-08-05T15:54:15.746Z,26.66
2022-08-05T15:55:16.022Z,26.59
2022-08-05T15:56:15.032Z,26.51
2022-08-05T15:57:15.188Z,26.43
2022-08-05T15:58:16.699Z,26.35
2022-08-05T15:59:22.007Z,26.29
2022-08-05T16:00:16.640Z,26.24
2022-08-05T16:01:17.284Z,26.19
2022-08-05T16:02:19.461Z,26.15
2022-08-05T16:03:15.947Z,26.12
2022-08-05T16:04:14.937Z,26.09
2022-08-05T16:05:14.925Z,26.07
2022-08-05T16:06:14.936Z,26.06
2022-08-05T16:07:16.278Z,26.06
2022-08-05T16:08:16.164Z,26.04
2022-08-05T16:09:14.888Z,26.01
2022-08-05T16:10:14.921Z,25.93
2022-08-05T16:11:14.917Z,25.83
2022-08-05T16:12:15.199Z,25.73
2022-08-05T16:13:23.775Z,25.64
2022-08-05T16:14:17.176Z,25.56
2022-08-05T16:15:18.745Z,25.50
2022-08-05T16:16:14.817Z,25.47
2022-08-05T16:17:15.848Z,25.48
2022-08-05T16:18:15.051Z,25.49
2022-08-05T16:19:25.650Z,25.50
2022-08-05T16:20:15.753Z,25.50
2022-08-05T16:21:14.788Z,25.46
2022-08-05T16:22:15.454Z,25.42
2022-08-05T16:23:14.746Z,25.39
2022-08-05T16:24:39.930Z,25.33
2022-08-05T16:25:15.719Z,25.25
2022-08-05T16:26:14.706Z,25.15
2022-08-05T16:27:15.777Z,25.06
2022-08-05T16:28:15.652Z,24.97
2022-08-05T16:29:14.838Z,24.89
2022-08-05T16:30:25.908Z,24.82
2022-08-05T16:31:15.705Z,24.77
2022-08-05T16:32:14.633Z,24.74
2022-08-05T16:33:15.509Z,24.71
2022-08-05T16:34:14.771Z,24.68
2022-08-05T16:35:16.010Z,24.63
2022-08-05T16:36:14.589Z,24.59
2022-08-05T16:38:03.497Z,24.58
2022-08-05T16:38:25.442Z,24.57
2022-08-05T16:39:15.763Z,24.56
2022-08-05T16:40:28.617Z,24.55
2022-08-05T16:42:12.186Z,24.54
2022-08-05T16:42:19.429Z,24.53
2022-08-05T16:43:15.540Z,24.53
2022-08-05T16:44:14.559Z,24.54
2022-08-05T16:46:03.520Z,24.53
2022-08-05T16:46:24.363Z,24.51
2022-08-05T16:47:24.787Z,24.49
2022-08-05T16:48:25.255Z,24.48
2022-08-05T16:49:15.516Z,24.47
2022-08-05T16:50:14.456Z,24.44
2022-08-05T16:51:14.571Z,24.42
2022-08-05T16:52:14.475Z,24.38
2022-08-05T16:53:22.550Z,24.32
2022-08-05T16:54:22.493Z,24.26
2022-08-05T16:55:15.396Z,24.18
2022-08-05T16:56:14.553Z,24.07
2022-08-05T16:57:14.985Z,23.98
2022-08-05T16:58:15.369Z,23.91
2022-08-05T16:59:14.566Z,23.85
2022-08-05T17:00:14.385Z,23.79
2022-08-05T17:01:15.589Z,23.74
2022-08-05T17:02:14.386Z,23.71
2022-08-05T17:03:20.294Z,23.68
2022-08-05T17:04:15.294Z,23.63
2022-08-05T17:05:14.252Z,23.57
2022-08-05T17:06:16.565Z,23.53
2022-08-05T17:07:14.448Z,23.51
2022-08-05T17:08:15.305Z,23.50
2022-08-05T17:09:15.224Z,23.51
2022-08-05T17:10:14.418Z,23.52
2022-08-05T17:11:17.229Z,23.53
2022-08-05T17:12:14.212Z,23.53
2022-08-05T17:13:16.866Z,23.51
2022-08-05T17:14:22.275Z,23.49
2022-08-05T17:15:15.485Z,23.47
2022-08-05T17:16:32.504Z,23.46
2022-08-05T17:17:15.423Z,23.47
2022-08-05T17:18:15.003Z,23.48
2022-08-05T17:19:14.112Z,23.49
2022-08-05T17:20:14.958Z,23.51
2022-08-05T17:21:14.181Z,23.52
2022-08-05T17:22:24.659Z,23.52
2022-08-05T17:24:03.533Z,23.53
2022-08-05T17:24:18.711Z,23.53
2022-08-05T17:25:33.680Z,23.53
2022-08-05T17:26:15.113Z,23.51
2022-08-05T17:27:16.223Z,23.45
2022-08-05T17:28:15.594Z,23.37
2022-08-05T17:29:14.302Z,23.31
2022-08-05T17:30:19.131Z,23.25
2022-08-05T17:31:24.037Z,23.21
2022-08-05T17:32:17.206Z,23.19
2022-08-05T17:33:14.983Z,23.20
2022-08-05T17:34:18.075Z,23.22
2022-08-05T17:35:15.664Z,23.23
2022-08-05T17:36:33.693Z,23.25
2022-08-05T17:37:39.475Z,23.27
2022-08-05T17:38:14.999Z,23.29
2022-08-05T17:39:24.194Z,23.32
2022-08-05T17:40:15.225Z,23.34
2022-08-05T17:42:16.692Z,23.35
2022-08-05T17:42:17.269Z,23.36
2022-08-05T17:43:14.959Z,23.36
2022-08-05T17:44:13.929Z,23.36
2022-08-05T17:45:20.389Z,23.36
2022-08-05T17:46:15.246Z,23.36
2022-08-05T17:47:13.849Z,23.36
2022-08-05T17:48:13.837Z,23.36
2022-08-05T17:49:13.842Z,23.36
2022-08-05T17:50:13.911Z,23.34
2022-08-05T17:51:14.801Z,23.33
2022-08-05T17:52:15.060Z,23.32
2022-08-05T17:53:13.784Z,23.31
2022-08-05T17:54:13.780Z,23.29
2022-08-05T17:55:13.757Z,23.26
2022-08-05T17:56:13.811Z,23.25
2022-08-05T17:57:13.786Z,23.24
2022-08-05T17:58:14.487Z,23.22
2022-08-05T17:59:13.711Z,23.18
2022-08-05T18:00:14.270Z,23.14
2022-08-05T18:01:14.058Z,23.09
2022-08-05T18:02:14.419Z,23.05
2022-08-05T18:03:28.048Z,23.02
2022-08-05T18:04:15.641Z,22.99
2022-08-05T18:05:17.050Z,22.95
2022-08-05T18:06:15.515Z,22.92
2022-08-05T18:07:13.877Z,22.90
2022-08-05T18:08:13.793Z,22.90
2022-08-05T18:09:14.548Z,22.90
2022-08-05T18:10:21.095Z,22.89
2022-08-05T18:11:23.752Z,22.88
2022-08-05T18:12:14.645Z,22.87
2022-08-05T18:13:14.626Z,22.85
2022-08-05T18:14:13.834Z,22.85
2022-08-05T18:15:14.982Z,22.85
2022-08-05T18:16:13.839Z,22.85
2022-08-05T18:17:59.025Z,22.86
2022-08-05T18:18:14.775Z,22.86
2022-08-05T18:19:14.445Z,22.87
2022-08-05T18:20:15.162Z,22.87
2022-08-05T18:21:19.959Z,22.86
2022-08-05T18:22:18.097Z,22.84
2022-08-05T18:23:13.440Z,22.80
2022-08-05T18:24:14.343Z,22.76
2022-08-05T18:25:13.471Z,22.73
2022-08-05T18:26:13.520Z,22.72
2022-08-05T18:27:18.895Z,22.72
2022-08-05T18:28:16.065Z,22.72
2022-08-05T18:29:13.424Z,22.73
2022-08-05T18:30:13.375Z,22.73
2022-08-05T18:31:13.359Z,22.73
2022-08-05T18:32:13.354Z,22.74
2022-08-05T18:33:14.029Z,22.74
2022-08-05T18:34:13.381Z,22.74
2022-08-05T18:35:13.309Z,22.74
2022-08-05T18:36:15.395Z,22.75
2022-08-05T18:37:34.090Z,22.72
2022-08-05T18:38:18.902Z,22.68
2022-08-05T18:39:42.000Z,22.64
2022-08-05T18:40:34.188Z,22.61
2022-08-05T18:41:56.736Z,22.57
2022-08-05T18:42:14.308Z,22.54
2022-08-05T18:43:16.340Z,22.52
2022-08-05T18:44:13.437Z,22.49
2022-08-05T18:45:14.257Z,22.45
2022-08-05T18:46:13.232Z,22.42
2022-08-05T18:47:13.190Z,22.41
2022-08-05T18:48:17.395Z,22.40
2022-08-05T18:49:14.374Z,22.40
2022-08-05T18:50:13.254Z,22.39
2022-08-05T18:52:04.098Z,22.39
2022-08-05T18:52:14.199Z,22.38
2022-08-05T18:53:20.652Z,22.37
2022-08-05T18:54:14.128Z,22.36
2022-08-05T18:55:13.141Z,22.36
2022-08-05T18:56:13.093Z,22.35
2022-08-05T18:57:15.169Z,22.35
2022-08-05T18:58:16.277Z,22.35
2022-08-05T18:59:44.357Z,22.35
2022-08-05T19:00:20.281Z,22.35
2022-08-05T19:01:18.104Z,22.34
2022-08-05T19:02:27.790Z,22.33
2022-08-05T19:03:14.189Z,22.31
2022-08-05T19:04:13.015Z,22.29
2022-08-05T19:06:12.512Z,22.28
2022-08-05T19:06:21.676Z,22.28
2022-08-05T19:07:13.972Z,22.25
2022-08-05T19:08:13.715Z,22.21
2022-08-05T19:09:12.996Z,22.17
2022-08-05T19:10:12.968Z,22.14
2022-08-05T19:11:13.158Z,22.13
2022-08-05T19:12:12.969Z,22.12
2022-08-05T19:13:15.954Z,22.13
2022-08-05T19:14:44.944Z,22.13
2022-08-05T19:15:57.274Z,22.14
2022-08-05T19:16:25.367Z,22.14
2022-08-05T19:17:14.088Z,22.14
2022-08-05T19:18:20.810Z,22.15
2022-08-05T19:19:13.860Z,22.15
2022-08-05T19:20:12.908Z,22.15
2022-08-05T19:21:12.853Z,22.14
2022-08-05T19:22:12.822Z,22.13
2022-08-05T19:24:04.561Z,22.13
2022-08-05T19:24:13.810Z,22.12
2022-08-05T19:25:21.562Z,22.12
2022-08-05T19:26:13.799Z,22.11
2022-08-05T19:27:12.834Z,22.10
2022-08-05T19:28:12.798Z,22.08
2022-08-05T19:29:13.029Z,22.07
2022-08-05T19:30:12.809Z,22.05
2022-08-05T19:31:13.667Z,22.03
2022-08-05T19:32:13.770Z,22.00
2022-08-05T19:33:16.662Z,21.98
2022-08-05T19:34:12.774Z,21.95
2022-08-05T19:35:14.053Z,21.92
2022-08-05T19:36:12.725Z,21.89
2022-08-05T19:37:12.724Z,21.86
2022-08-05T19:38:12.712Z,21.84
2022-08-05T19:39:12.661Z,21.82
2022-08-05T19:40:12.751Z,21.80
2022-08-05T19:41:12.801Z,21.79
2022-08-05T19:42:13.574Z,21.77
2022-08-05T19:43:24.425Z,21.77
2022-08-05T19:44:14.201Z,21.77
2022-08-05T19:45:14.366Z,21.76
2022-08-05T19:46:29.697Z,21.76
2022-08-05T19:47:16.111Z,21.75
2022-08-05T19:48:14.524Z,21.75
2022-08-05T19:49:17.108Z,21.74
2022-08-05T19:50:13.592Z,21.74
2022-08-05T19:51:12.542Z,21.73
2022-08-05T19:52:31.587Z,21.72
2022-08-05T19:53:13.647Z,21.70
2022-08-05T19:54:21.739Z,21.68
2022-08-05T19:56:15.598Z,21.67
2022-08-05T19:56:20.597Z,21.67
2022-08-05T19:57:13.476Z,21.67
2022-08-05T19:58:28.781Z,21.67
2022-08-05T19:59:51.184Z,21.66
2022-08-05T20:00:13.469Z,21.65
2022-08-05T20:01:12.525Z,21.64
2022-08-05T20:02:12.451Z,21.62
2022-08-05T20:03:12.417Z,21.59
2022-08-05T20:04:12.412Z,21.56
2022-08-05T20:05:16.553Z,21.53
2022-08-05T20:06:15.893Z,21.51
2022-08-05T20:07:13.709Z,21.48
2022-08-05T20:08:12.471Z,21.46
2022-08-05T20:09:13.810Z,21.44
2022-08-05T20:10:14.140Z,21.43
2022-08-05T20:11:12.581Z,21.42
2022-08-05T20:12:13.351Z,21.40
2022-08-05T20:13:12.295Z,21.37
2022-08-05T20:14:14.469Z,21.33
2022-08-05T20:15:13.310Z,21.29
2022-08-05T20:16:12.260Z,21.26
2022-08-05T20:17:13.003Z,21.22
2022-08-05T20:18:32.525Z,21.17
2022-08-05T20:19:13.250Z,21.13
2022-08-05T20:20:12.273Z,21.10
2022-08-05T20:21:12.266Z,21.09
2022-08-05T20:22:12.228Z,21.09
2022-08-05T20:23:12.344Z,21.08
2022-08-05T20:24:12.198Z,21.07
2022-08-05T20:25:12.170Z,21.06
2022-08-05T20:26:16.547Z,21.05
2022-08-05T20:27:13.143Z,21.05
2022-08-05T20:28:13.594Z,21.05
2022-08-05T20:29:27.435Z,21.06
2022-08-05T20:30:13.124Z,21.07
2022-08-05T20:31:12.200Z,21.08
2022-08-05T20:32:12.117Z,21.09
2022-08-05T20:33:12.135Z,21.10
2022-08-05T20:34:12.550Z,21.11
2022-08-05T20:35:12.290Z,21.10
2022-08-05T20:36:12.077Z,21.10
2022-08-05T20:37:24.212Z,21.11
2022-08-05T20:38:20.132Z,21.11
2022-08-05T20:39:16.107Z,21.12
2022-08-05T20:40:12.520Z,21.13
2022-08-05T20:41:12.065Z,21.14
2022-08-05T20:42:13.022Z,21.14
2022-08-05T20:43:11.982Z,21.13
2022-08-05T20:44:17.118Z,21.13
2022-08-05T20:45:13.127Z,21.12
2022-08-05T20:46:12.416Z,21.10
2022-08-05T20:47:12.936Z,21.08
2022-08-05T20:48:11.988Z,21.06
2022-08-05T20:49:11.990Z,21.04
2022-08-05T20:50:11.907Z,21.03
2022-08-05T20:51:12.213Z,21.02
2022-08-05T20:52:12.221Z,21.01
2022-08-05T20:53:15.987Z,21.00
2022-08-05T20:54:14.061Z,20.99
2022-08-05T20:55:55.113Z,20.96
2022-08-05T20:56:13.021Z,20.94
2022-08-05T20:57:14.284Z,20.91
2022-08-05T20:58:11.789Z,20.89
2022-08-05T20:59:19.337Z,20.87
2022-08-05T21:00:35.026Z,20.87
2022-08-05T21:01:13.366Z,20.87
2022-08-05T21:02:11.999Z,20.88
2022-08-05T21:03:12.834Z,20.88
2022-08-05T21:04:11.785Z,20.88
2022-08-05T21:05:11.750Z,20.88
2022-08-05T21:06:27.649Z,20.87
2022-08-05T21:07:12.710Z,20.86
2022-08-05T21:08:11.885Z,20.84
2022-08-05T21:09:11.738Z,20.81
2022-08-05T21:10:13.770Z,20.79
2022-08-05T21:11:12.412Z,20.76
2022-08-05T21:12:11.974Z,20.73
2022-08-05T21:13:14.802Z,20.70
2022-08-05T21:14:11.711Z,20.67
2022-08-05T21:15:11.625Z,20.65
2022-08-05T21:16:11.630Z,20.65
2022-08-05T21:17:11.711Z,20.65
2022-08-05T21:18:11.635Z,20.65
2022-08-05T21:19:11.776Z,20.64
2022-08-05T21:20:11.659Z,20.64
2022-08-05T21:21:11.562Z,20.63
2022-08-05T21:22:11.934Z,20.61
2022-08-05T21:23:11.597Z,20.60
2022-08-05T21:24:12.933Z,20.59
2022-08-05T21:25:11.732Z,20.58
2022-08-05T21:26:14.396Z,20.57
2022-08-05T21:27:11.496Z,20.56
2022-08-05T21:28:11.486Z,20.55
2022-08-05T21:29:12.569Z,20.53
2022-08-05T21:30:17.559Z,20.52
2022-08-05T21:31:12.462Z,20.52
2022-08-05T21:32:11.486Z,20.51
2022-08-05T21:33:22.581Z,20.51
2022-08-05T21:34:12.420Z,20.52
2022-08-05T21:35:18.069Z,20.52
2022-08-05T21:36:12.634Z,20.52
2022-08-05T21:37:12.409Z,20.51
2022-08-05T21:38:11.457Z,20.51
2022-08-05T21:39:14.273Z,20.50
2022-08-05T21:40:13.053Z,20.49
2022-08-05T21:41:11.403Z,20.48
2022-08-05T21:42:30.704Z,20.48
2022-08-05T21:43:23.942Z,20.47
2022-08-05T21:44:12.352Z,20.46
2022-08-05T21:45:11.326Z,20.44
2022-08-05T21:46:11.744Z,20.42
2022-08-05T21:47:17.628Z,20.40
2022-08-05T21:48:13.592Z,20.39
2022-08-05T21:49:13.202Z,20.37
2022-08-05T21:50:12.307Z,20.36
2022-08-05T21:51:25.167Z,20.35
2022-08-05T21:52:22.220Z,20.35
2022-08-05T21:53:17.437Z,20.35
2022-08-05T21:54:12.405Z,20.35
2022-08-05T21:55:11.333Z,20.34
2022-08-05T21:56:16.793Z,20.33
2022-08-05T21:58:12.176Z,20.30
2022-08-05T21:59:24.291Z,20.29
2022-08-05T22:00:12.349Z,20.28
2022-08-05T22:01:11.226Z,20.28
2022-08-05T22:02:12.169Z,20.27
2022-08-05T22:03:11.134Z,20.28
2022-08-05T22:04:13.551Z,20.28
2022-08-05T22:05:11.115Z,20.28
2022-08-05T22:06:11.258Z,20.28
2022-08-05T22:07:11.929Z,20.28
2022-08-05T22:08:22.578Z,20.28
2022-08-05T22:09:13.067Z,20.27
2022-08-05T22:10:11.040Z,20.27
2022-08-05T22:11:11.086Z,20.26
2022-08-05T22:12:11.199Z,20.26
2022-08-05T22:14:34.069Z,20.26
2022-08-05T22:14:35.868Z,20.25
2022-08-05T22:15:12.066Z,20.24
2022-08-05T22:16:41.187Z,20.23
2022-08-05T22:17:12.123Z,20.22
2022-08-05T22:18:11.128Z,20.20
2022-08-05T22:19:15.226Z,20.19
2022-08-05T22:20:14.799Z,20.18
2022-08-05T22:21:18.749Z,20.17
2022-08-05T22:22:11.927Z,20.16
2022-08-05T22:23:16.591Z,20.15
2022-08-05T22:24:13.205Z,20.15
2022-08-05T22:25:20.955Z,20.15
2022-08-05T22:26:12.001Z,20.15
2022-08-05T22:27:14.036Z,20.14
2022-08-05T22:28:12.230Z,20.13
2022-08-05T22:29:10.870Z,20.12
2022-08-05T22:30:10.864Z,20.11
2022-08-05T22:31:11.133Z,20.09
2022-08-05T22:32:10.804Z,20.07
2022-08-05T22:33:15.707Z,20.05
2022-08-05T22:34:10.990Z,20.03
2022-08-05T22:35:11.841Z,20.02
2022-08-05T22:36:10.765Z,20.01
2022-08-05T22:37:10.787Z,20.00
2022-08-05T22:38:10.741Z,20.00
2022-08-05T22:39:10.776Z,19.99
2022-08-05T22:40:10.904Z,19.98
2022-08-05T22:41:11.754Z,19.98
2022-08-05T22:42:15.469Z,19.98
2022-08-05T22:43:11.702Z,19.98
2022-08-05T22:44:12.032Z,19.98
2022-08-05T22:45:10.720Z,19.98
2022-08-05T22:46:13.127Z,19.98
2022-08-05T22:47:11.169Z,19.98
2022-08-05T22:48:10.761Z,19.98
2022-08-05T22:49:12.132Z,19.98
2022-08-05T22:50:20.707Z,19.98
2022-08-05T22:51:22.387Z,19.98
2022-08-05T22:52:22.802Z,19.98
2022-08-05T22:53:11.670Z,19.98
2022-08-05T22:54:10.625Z,19.98
2022-08-05T22:55:18.667Z,19.97
2022-08-05T22:56:11.564Z,19.97
2022-08-05T22:57:10.975Z,19.97
2022-08-05T22:58:11.740Z,19.97
2022-08-05T22:59:42.551Z,19.98
2022-08-05T23:00:11.523Z,19.99
2022-08-05T23:01:11.526Z,20.00
2022-08-05T23:02:10.641Z,20.00
2022-08-05T23:03:13.447Z,20.00
2022-08-05T23:04:10.614Z,20.00
2022-08-05T23:05:10.494Z,20.00
2022-08-05T23:06:10.475Z,20.00
2022-08-05T23:07:10.425Z,20.00
2022-08-05T23:08:10.467Z,20.00
2022-08-05T23:09:27.155Z,20.00
2022-08-05T23:10:11.434Z,19.99
2022-08-05T23:11:10.443Z,19.99
2022-08-05T23:12:10.423Z,19.98
2022-08-05T23:13:10.432Z,19.97
2022-08-05T23:14:10.374Z,19.96
2022-08-05T23:15:10.533Z,19.95
2022-08-05T23:16:10.347Z,19.94
2022-08-05T23:17:10.336Z,19.93
2022-08-05T23:18:11.745Z,19.92
2022-08-05T23:19:11.345Z,19.91
2022-08-05T23:20:17.970Z,19.91
2022-08-05T23:21:11.298Z,19.89
2022-08-05T23:22:11.273Z,19.86
2022-08-05T23:23:10.336Z,19.84
2022-08-05T23:24:11.326Z,19.82
2022-08-05T23:25:11.411Z,19.81
2022-08-05T23:26:10.663Z,19.80
2022-08-05T23:27:10.259Z,19.79
2022-08-05T23:28:10.256Z,19.78
2022-08-05T23:29:10.267Z,19.78
2022-08-05T23:30:15.471Z,19.76
2022-08-05T23:31:17.141Z,19.73
2022-08-05T23:32:11.434Z,19.68
2022-08-05T23:33:16.444Z,19.64
2022-08-05T23:34:11.200Z,19.61
2022-08-05T23:35:10.168Z,19.59
2022-08-05T23:36:10.549Z,19.58
2022-08-05T23:37:10.168Z,19.58
2022-08-05T23:38:12.133Z,19.58
2022-08-05T23:39:10.178Z,19.57
2022-08-05T23:40:11.098Z,19.55
2022-08-05T23:41:10.091Z,19.53
2022-08-05T23:42:14.420Z,19.49
2022-08-05T23:43:24.317Z,19.47
2022-08-05T23:44:11.220Z,19.47
2022-08-05T23:45:13.845Z,19.44
2022-08-05T23:46:20.773Z,19.42
2022-08-05T23:47:15.169Z,19.39
2022-08-05T23:48:10.003Z,19.37
2022-08-05T23:49:16.868Z,19.37
2022-08-05T23:50:11.043Z,19.37
2022-08-05T23:51:10.038Z,19.37
2022-08-05T23:52:10.980Z,19.38
2022-08-05T23:53:22.451Z,19.37
2022-08-05T23:54:11.120Z,19.36
2022-08-05T23:55:09.962Z,19.36
2022-08-05T23:56:09.926Z,19.36
2022-08-05T23:57:09.925Z,19.36
2022-08-05T23:58:31.694Z,19.35
2022-08-05T23:59:10.933Z,19.34
